createdAt,value
2018-02-02T00:00:29.752Z,990.68
2018-02-02T00:01:29.723Z,990.64
2018-02-02T00:02:29.693Z,990.61
2018-02-02T00:03:29.661Z,990.61
2018-02-02T00:04:29.632Z,990.63
2018-02-02T00:05:29.602Z,990.59
2018-02-02T00:06:29.571Z,990.6
2018-02-02T00:07:29.541Z,990.61
2018-02-02T00:08:29.513Z,990.57
2018-02-02T00:09:29.483Z,990.59
2018-02-02T00:10:29.452Z,990.5
2018-02-02T00:11:29.424Z,990.42
2018-02-02T00:12:29.393Z,990.52
2018-02-02T00:13:29.363Z,990.45
2018-02-02T00:14:29.334Z,990.39
2018-02-02T00:15:29.304Z,990.45
2018-02-02T00:16:29.274Z,990.47
2018-02-02T00:17:29.244Z,990.49
2018-02-02T00:18:29.215Z,990.45
2018-02-02T00:19:29.186Z,990.43
2018-02-02T00:20:29.155Z,990.44
2018-02-02T00:21:29.125Z,990.46
2018-02-02T00:22:29.095Z,990.43
2018-02-02T00:23:29.066Z,990.39
2018-02-02T00:24:29.036Z,990.43
2018-02-02T00:25:29.006Z,990.4
2018-02-02T00:26:28.978Z,990.39
2018-02-02T00:27:28.948Z,990.4
2018-02-02T00:28:28.918Z,990.32
2018-02-02T00:29:28.887Z,990.33
2018-02-02T00:30:28.859Z,990.3
2018-02-02T00:31:28.829Z,990.32
2018-02-02T00:32:28.799Z,990.29
2018-02-02T00:33:28.770Z,990.29
2018-02-02T00:34:28.739Z,990.26
2018-02-02T00:35:28.710Z,990.33
2018-02-02T00:36:28.679Z,990.36
2018-02-02T00:37:28.650Z,990.3
2018-02-02T00:38:28.621Z,990.28
2018-02-02T00:39:28.592Z,990.35
2018-02-02T00:40:28.563Z,990.34
2018-02-02T00:41:28.532Z,990.43
2018-02-02T00:42:28.504Z,990.34
2018-02-02T00:43:28.474Z,990.33
2018-02-02T00:44:28.442Z,990.4
2018-02-02T00:45:28.414Z,990.36
2018-02-02T00:46:28.382Z,990.34
2018-02-02T00:47:28.353Z,990.32
2018-02-02T00:48:28.324Z,990.4
2018-02-02T00:49:28.294Z,990.41
2018-02-02T00:50:28.265Z,990.32
2018-02-02T00:51:28.236Z,990.32
2018-02-02T00:52:28.206Z,990.38
2018-02-02T00:53:28.176Z,990.32
2018-02-02T00:54:28.147Z,990.32
2018-02-02T00:55:28.117Z,990.19
2018-02-02T00:56:28.088Z,990.22
2018-02-02T00:57:28.058Z,990.31
2018-02-02T00:58:28.028Z,990.35
2018-02-02T00:59:28.000Z,990.27
2018-02-02T01:00:27.971Z,990.32
2018-02-02T01:01:27.939Z,990.26
2018-02-02T01:02:27.911Z,990.27
2018-02-02T01:03:27.882Z,990.2
2018-02-02T01:04:27.852Z,990.22
2018-02-02T01:05:27.822Z,990.23
2018-02-02T01:06:27.793Z,990.27
2018-02-02T01:07:27.768Z,990.27
2018-02-02T01:08:27.733Z,990.11
2018-02-02T01:09:27.710Z,990.28
2018-02-02T01:10:27.675Z,990.25
2018-02-02T01:11:27.644Z,990.27
2018-02-02T01:12:27.614Z,990.24
2018-02-02T01:13:27.584Z,990.2
2018-02-02T01:14:27.555Z,990.26
2018-02-02T01:15:27.525Z,990.28
2018-02-02T01:16:27.496Z,990.32
2018-02-02T01:17:27.468Z,990.21
2018-02-02T01:18:27.439Z,990.46
2018-02-02T01:19:27.411Z,990.25
2018-02-02T01:20:27.378Z,990.24
2018-02-02T01:21:27.348Z,990.25
2018-02-02T01:22:27.319Z,990.25
2018-02-02T01:23:27.289Z,990.26
2018-02-02T01:24:27.260Z,990.13
2018-02-02T01:25:27.231Z,990.25
2018-02-02T01:26:27.201Z,990.21
2018-02-02T01:27:27.180Z,990.21
2018-02-02T01:28:27.142Z,990.22
2018-02-02T01:29:27.114Z,990.19
2018-02-02T01:30:27.083Z,990.17
2018-02-02T01:31:27.058Z,990.15
2018-02-02T01:32:27.024Z,990.18
2018-02-02T01:33:26.994Z,990.17
2018-02-02T01:34:26.965Z,990.15
2018-02-02T01:35:26.936Z,990.2
2018-02-02T01:36:26.905Z,990.14
2018-02-02T01:37:26.876Z,990.18
2018-02-02T01:38:26.850Z,990.15
2018-02-02T01:39:26.816Z,990.23
2018-02-02T01:40:26.788Z,990.1
2018-02-02T01:41:26.758Z,990.03
2018-02-02T01:42:26.729Z,990.12
2018-02-02T01:43:26.703Z,990.14
2018-02-02T01:44:26.669Z,990.1
2018-02-02T01:45:26.640Z,990.12
2018-02-02T01:46:26.612Z,990.2
2018-02-02T01:47:26.580Z,990.19
2018-02-02T01:48:26.550Z,990.14
2018-02-02T01:49:26.521Z,990.16
2018-02-02T01:50:26.493Z,990.17
2018-02-02T01:51:26.462Z,990.18
2018-02-02T01:52:26.433Z,990.16
2018-02-02T01:53:26.404Z,990.17
2018-02-02T01:54:26.374Z,990.2
2018-02-02T01:55:26.345Z,990.22
2018-02-02T01:56:26.315Z,990.27
2018-02-02T01:57:26.286Z,990.21
2018-02-02T01:58:26.257Z,990.14
2018-02-02T01:59:26.226Z,990.15
2018-02-02T02:00:26.197Z,990.06
2018-02-02T02:01:26.169Z,990.15
2018-02-02T02:02:26.143Z,990.13
2018-02-02T02:03:26.108Z,990.11
2018-02-02T02:04:26.080Z,990.09
2018-02-02T02:05:26.057Z,990.07
2018-02-02T02:06:26.021Z,990.04
2018-02-02T02:07:25.992Z,990.05
2018-02-02T02:08:25.961Z,990.07
2018-02-02T02:09:25.933Z,990.04
2018-02-02T02:10:25.902Z,990.14
2018-02-02T02:11:25.875Z,990.07
2018-02-02T02:12:25.844Z,990.11
2018-02-02T02:13:25.816Z,990.04
2018-02-02T02:14:25.786Z,990.08
2018-02-02T02:15:25.756Z,990.04
2018-02-02T02:16:25.726Z,990.05
2018-02-02T02:17:25.698Z,990.02
2018-02-02T02:18:25.667Z,989.96
2018-02-02T02:19:25.639Z,989.99
2018-02-02T02:20:25.608Z,989.98
2018-02-02T02:21:25.579Z,989.95
2018-02-02T02:22:25.550Z,990.01
2018-02-02T02:23:25.520Z,989.96
2018-02-02T02:24:25.490Z,989.85
2018-02-02T02:25:25.462Z,989.88
2018-02-02T02:26:25.433Z,989.88
2018-02-02T02:27:25.404Z,989.91
2018-02-02T02:28:25.375Z,989.91
2018-02-02T02:29:25.348Z,989.81
2018-02-02T02:30:25.316Z,989.85
2018-02-02T02:31:25.286Z,989.81
2018-02-02T02:32:25.256Z,989.81
2018-02-02T02:33:25.227Z,989.8
2018-02-02T02:34:25.199Z,989.75
2018-02-02T02:35:25.170Z,989.82
2018-02-02T02:36:25.140Z,989.77
2018-02-02T02:37:25.110Z,989.73
2018-02-02T02:38:25.081Z,989.62
2018-02-02T02:39:25.052Z,989.78
2018-02-02T02:40:25.023Z,989.71
2018-02-02T02:41:24.996Z,989.64
2018-02-02T02:42:24.963Z,989.65
2018-02-02T02:43:24.933Z,989.65
2018-02-02T02:44:24.904Z,989.57
2018-02-02T02:45:24.874Z,989.63
2018-02-02T02:46:24.846Z,989.59
2018-02-02T02:47:24.854Z,989.61
2018-02-02T02:48:24.786Z,989.6
2018-02-02T02:49:24.757Z,989.53
2018-02-02T02:50:24.726Z,989.55
2018-02-02T02:51:24.706Z,989.52
2018-02-02T02:52:24.668Z,989.55
2018-02-02T02:53:24.640Z,989.54
2018-02-02T02:54:24.613Z,989.53
2018-02-02T02:55:24.581Z,989.56
2018-02-02T02:56:24.551Z,989.52
2018-02-02T02:57:24.523Z,989.5
2018-02-02T02:58:24.493Z,989.52
2018-02-02T02:59:24.462Z,989.57
2018-02-02T03:00:24.435Z,989.52
2018-02-02T03:01:24.403Z,989.52
2018-02-02T03:02:24.375Z,989.51
2018-02-02T03:03:24.348Z,989.51
2018-02-02T03:04:24.315Z,989.5
2018-02-02T03:05:24.286Z,989.41
2018-02-02T03:06:24.256Z,989.44
2018-02-02T03:07:24.228Z,989.52
2018-02-02T03:08:24.198Z,989.55
2018-02-02T03:09:24.168Z,989.64
2018-02-02T03:10:24.140Z,989.49
2018-02-02T03:11:24.112Z,989.56
2018-02-02T03:12:24.080Z,989.59
2018-02-02T03:13:24.050Z,989.59
2018-02-02T03:14:24.021Z,989.5
2018-02-02T03:15:23.991Z,989.59
2018-02-02T03:16:23.961Z,989.58
2018-02-02T03:17:23.933Z,989.59
2018-02-02T03:18:23.905Z,989.49
2018-02-02T03:19:23.873Z,989.45
2018-02-02T03:20:23.843Z,989.54
2018-02-02T03:21:23.813Z,989.57
2018-02-02T03:22:23.784Z,989.52
2018-02-02T03:23:23.752Z,989.56
2018-02-02T03:24:23.724Z,989.51
2018-02-02T03:25:23.693Z,989.52
2018-02-02T03:26:23.665Z,989.51
2018-02-02T03:27:23.633Z,989.52
2018-02-02T03:28:23.602Z,989.53
2018-02-02T03:29:23.573Z,989.53
2018-02-02T03:30:23.544Z,989.55
2018-02-02T03:31:23.512Z,989.51
2018-02-02T03:32:23.481Z,989.48
2018-02-02T03:33:23.451Z,989.49
2018-02-02T03:34:23.422Z,989.5
2018-02-02T03:35:23.391Z,989.47
2018-02-02T03:36:23.362Z,989.44
2018-02-02T03:37:23.331Z,989.48
2018-02-02T03:38:23.299Z,989.48
2018-02-02T03:39:23.270Z,989.47
2018-02-02T03:40:23.240Z,989.44
2018-02-02T03:41:23.210Z,989.44
2018-02-02T03:42:23.179Z,989.45
2018-02-02T03:43:23.149Z,989.42
2018-02-02T03:44:23.119Z,989.48
2018-02-02T03:45:23.087Z,989.45
2018-02-02T03:46:23.056Z,989.48
2018-02-02T03:47:23.028Z,989.48
2018-02-02T03:48:22.997Z,989.49
2018-02-02T03:49:22.966Z,989.46
2018-02-02T03:50:22.936Z,989.51
2018-02-02T03:51:22.906Z,989.56
2018-02-02T03:52:22.877Z,989.54
2018-02-02T03:53:22.844Z,989.52
2018-02-02T03:54:22.814Z,989.51
2018-02-02T03:55:22.784Z,989.54
2018-02-02T03:56:22.753Z,989.48
2018-02-02T03:57:22.723Z,989.5
2018-02-02T03:58:22.691Z,989.52
2018-02-02T03:59:22.661Z,989.47
2018-02-02T04:00:22.630Z,989.46
2018-02-02T04:01:22.600Z,989.55
2018-02-02T04:02:22.571Z,989.49
2018-02-02T04:03:22.541Z,989.47
2018-02-02T04:04:22.511Z,989.47
2018-02-02T04:05:22.480Z,989.49
2018-02-02T04:06:22.450Z,989.5
2018-02-02T04:07:22.418Z,989.5
2018-02-02T04:08:22.390Z,989.46
2018-02-02T04:09:22.358Z,989.44
2018-02-02T04:10:22.329Z,989.43
2018-02-02T04:11:22.298Z,989.43
2018-02-02T04:12:22.267Z,989.46
2018-02-02T04:13:22.238Z,989.37
2018-02-02T04:14:22.206Z,989.41
2018-02-02T04:15:22.175Z,989.38
2018-02-02T04:16:22.146Z,989.4
2018-02-02T04:17:22.114Z,989.41
2018-02-02T04:18:22.085Z,989.43
2018-02-02T04:19:22.054Z,989.41
2018-02-02T04:20:22.024Z,989.45
2018-02-02T04:21:21.994Z,989.41
2018-02-02T04:22:21.962Z,989.45
2018-02-02T04:23:21.933Z,989.45
2018-02-02T04:24:21.903Z,989.39
2018-02-02T04:25:21.871Z,989.5
2018-02-02T04:26:21.847Z,989.46
2018-02-02T04:27:21.810Z,989.47
2018-02-02T04:28:21.780Z,989.39
2018-02-02T04:29:21.749Z,989.46
2018-02-02T04:30:21.721Z,989.47
2018-02-02T04:31:21.689Z,989.46
2018-02-02T04:32:21.660Z,989.47
2018-02-02T04:33:21.628Z,989.51
2018-02-02T04:34:21.602Z,989.55
2018-02-02T04:35:21.569Z,989.52
2018-02-02T04:36:21.538Z,989.51
2018-02-02T04:37:21.507Z,989.52
2018-02-02T04:38:21.476Z,989.48
2018-02-02T04:39:21.446Z,989.49
2018-02-02T04:40:21.414Z,989.47
2018-02-02T04:41:21.385Z,989.53
2018-02-02T04:42:21.355Z,989.55
2018-02-02T04:43:21.324Z,989.54
2018-02-02T04:44:21.294Z,989.49
2018-02-02T04:45:21.262Z,989.56
2018-02-02T04:46:21.233Z,989.54
2018-02-02T04:47:21.202Z,989.6
2018-02-02T04:48:21.171Z,989.62
2018-02-02T04:49:21.141Z,989.55
2018-02-02T04:50:21.111Z,989.58
2018-02-02T04:51:21.079Z,989.52
2018-02-02T04:52:21.050Z,989.56
2018-02-02T04:53:21.020Z,989.55
2018-02-02T04:54:20.988Z,989.54
2018-02-02T04:55:20.959Z,989.52
2018-02-02T04:56:20.928Z,989.52
2018-02-02T04:57:20.898Z,989.52
2018-02-02T04:58:20.866Z,989.56
2018-02-02T04:59:20.836Z,989.5
2018-02-02T05:00:20.805Z,989.51
2018-02-02T05:01:20.774Z,989.49
2018-02-02T05:02:20.743Z,989.5
2018-02-02T05:03:20.714Z,989.56
2018-02-02T05:04:20.682Z,989.53
2018-02-02T05:05:20.652Z,989.5
2018-02-02T05:06:20.621Z,989.47
2018-02-02T05:07:20.591Z,989.52
2018-02-02T05:08:20.561Z,989.54
2018-02-02T05:09:20.528Z,989.55
2018-02-02T05:10:20.498Z,989.54
2018-02-02T05:11:20.469Z,989.49
2018-02-02T05:12:20.438Z,989.46
2018-02-02T05:13:20.408Z,989.5
2018-02-02T05:14:20.378Z,989.53
2018-02-02T05:15:20.346Z,989.5
2018-02-02T05:16:20.316Z,989.43
2018-02-02T05:17:20.286Z,989.47
2018-02-02T05:18:20.255Z,989.44
2018-02-02T05:19:20.226Z,989.46
2018-02-02T05:20:20.193Z,989.44
2018-02-02T05:21:20.164Z,989.43
2018-02-02T05:22:20.134Z,989.43
2018-02-02T05:23:20.103Z,989.4
2018-02-02T05:24:20.072Z,989.42
2018-02-02T05:25:20.041Z,989.45
2018-02-02T05:26:20.027Z,989.42
2018-02-02T05:27:19.982Z,989.45
2018-02-02T05:28:19.949Z,989.45
2018-02-02T05:29:19.920Z,989.43
2018-02-02T05:30:19.889Z,989.42
2018-02-02T05:31:19.858Z,989.44
2018-02-02T05:32:19.834Z,989.4
2018-02-02T05:33:19.799Z,989.42
2018-02-02T05:34:19.769Z,989.45
2018-02-02T05:35:19.737Z,989.44
2018-02-02T05:36:19.707Z,989.41
2018-02-02T05:37:19.676Z,989.39
2018-02-02T05:38:19.647Z,989.37
2018-02-02T05:39:19.617Z,989.34
2018-02-02T05:40:19.586Z,989.37
2018-02-02T05:41:19.557Z,989.38
2018-02-02T05:42:19.525Z,989.41
2018-02-02T05:43:19.774Z,989.41
2018-02-02T05:44:19.556Z,989.33
2018-02-02T05:45:19.534Z,989.32
2018-02-02T05:46:19.403Z,989.24
2018-02-02T05:47:19.373Z,989.34
2018-02-02T05:48:19.346Z,989.37
2018-02-02T05:49:19.314Z,989.33
2018-02-02T05:50:19.283Z,989.32
2018-02-02T05:51:19.254Z,989.33
2018-02-02T05:52:19.222Z,989.34
2018-02-02T05:53:19.191Z,989.31
2018-02-02T05:54:19.161Z,989.3
2018-02-02T05:55:19.132Z,989.28
2018-02-02T05:56:19.102Z,989.32
2018-02-02T05:57:19.071Z,989.27
2018-02-02T05:58:19.040Z,989.25
2018-02-02T05:59:19.012Z,989.31
2018-02-02T06:00:18.981Z,989.31
2018-02-02T06:01:18.952Z,989.27
2018-02-02T06:02:18.920Z,989.3
2018-02-02T06:03:18.891Z,989.28
2018-02-02T06:04:18.859Z,989.25
2018-02-02T06:05:18.829Z,989.23
2018-02-02T06:06:18.799Z,989.22
2018-02-02T06:07:18.770Z,989.25
2018-02-02T06:08:18.738Z,989.18
2018-02-02T06:09:18.708Z,989.19
2018-02-02T06:10:18.679Z,989.21
2018-02-02T06:11:18.649Z,989.18
2018-02-02T06:12:18.617Z,989.22
2018-02-02T06:13:18.588Z,989.22
2018-02-02T06:14:18.558Z,989.23
2018-02-02T06:15:18.528Z,989.18
2018-02-02T06:16:18.498Z,989.22
2018-02-02T06:17:18.468Z,989.22
2018-02-02T06:18:18.438Z,989.25
2018-02-02T06:19:18.407Z,989.29
2018-02-02T06:20:18.377Z,989.25
2018-02-02T06:21:18.348Z,989.28
2018-02-02T06:22:18.317Z,989.28
2018-02-02T06:23:18.287Z,989.28
2018-02-02T06:24:18.258Z,989.27
2018-02-02T06:25:18.266Z,989.27
2018-02-02T06:26:18.198Z,989.29
2018-02-02T06:27:18.218Z,989.3
2018-02-02T06:28:18.138Z,989.22
2018-02-02T06:29:18.109Z,989.29
2018-02-02T06:30:18.078Z,989.28
2018-02-02T06:31:18.049Z,989.22
2018-02-02T06:32:18.019Z,989.27
2018-02-02T06:33:17.990Z,989.33
2018-02-02T06:34:17.998Z,989.24
2018-02-02T06:35:17.929Z,989.26
2018-02-02T06:36:17.900Z,989.32
2018-02-02T06:37:17.869Z,989.33
2018-02-02T06:38:17.840Z,989.36
2018-02-02T06:39:17.811Z,989.32
2018-02-02T06:40:17.781Z,989.36
2018-02-02T06:41:17.751Z,989.29
2018-02-02T06:42:17.721Z,989.35
2018-02-02T06:43:17.690Z,989.28
2018-02-02T06:44:17.660Z,989.34
2018-02-02T06:45:17.630Z,989.33
2018-02-02T06:46:17.601Z,989.32
2018-02-02T06:47:17.572Z,989.33
2018-02-02T06:48:17.542Z,989.35
2018-02-02T06:49:17.513Z,989.25
2018-02-02T06:50:17.484Z,989.31
2018-02-02T06:51:17.481Z,989.37
2018-02-02T06:52:17.424Z,989.39
2018-02-02T06:53:17.393Z,989.36
2018-02-02T06:54:17.364Z,989.4
2018-02-02T06:55:17.333Z,989.37
2018-02-02T06:56:17.307Z,989.41
2018-02-02T06:57:17.274Z,989.34
2018-02-02T06:58:17.246Z,989.39
2018-02-02T06:59:17.214Z,989.38
2018-02-02T07:00:17.186Z,989.37
2018-02-02T07:01:17.155Z,989.38
2018-02-02T07:02:17.128Z,989.46
2018-02-02T07:03:17.096Z,989.39
2018-02-02T07:04:17.068Z,989.36
2018-02-02T07:05:17.039Z,989.42
2018-02-02T07:06:17.008Z,989.38
2018-02-02T07:07:16.979Z,989.37
2018-02-02T07:08:16.948Z,989.38
2018-02-02T07:09:16.920Z,989.4
2018-02-02T07:10:16.889Z,989.34
2018-02-02T07:11:16.864Z,989.4
2018-02-02T07:12:16.830Z,989.41
2018-02-02T07:13:16.801Z,989.37
2018-02-02T07:14:16.772Z,989.39
2018-02-02T07:15:16.742Z,989.39
2018-02-02T07:16:16.714Z,989.39
2018-02-02T07:17:16.683Z,989.3
2018-02-02T07:18:16.654Z,989.47
2018-02-02T07:19:16.625Z,989.42
2018-02-02T07:20:16.596Z,989.47
2018-02-02T07:21:16.565Z,989.43
2018-02-02T07:22:16.536Z,989.44
2018-02-02T07:23:16.509Z,989.44
2018-02-02T07:24:16.478Z,989.48
2018-02-02T07:25:16.447Z,989.41
2018-02-02T07:26:16.419Z,989.46
2018-02-02T07:27:16.390Z,989.5
2018-02-02T07:28:16.363Z,989.5
2018-02-02T07:29:16.331Z,989.47
2018-02-02T07:30:16.301Z,989.52
2018-02-02T07:31:16.272Z,989.53
2018-02-02T07:32:16.242Z,989.53
2018-02-02T07:33:16.212Z,989.45
2018-02-02T07:34:16.183Z,989.53
2018-02-02T07:35:16.154Z,989.57
2018-02-02T07:36:16.124Z,989.52
2018-02-02T07:37:16.095Z,989.53
2018-02-02T07:38:16.067Z,989.53
2018-02-02T07:39:16.036Z,989.6
2018-02-02T07:40:16.008Z,989.63
2018-02-02T07:41:15.978Z,989.69
2018-02-02T07:42:15.950Z,989.6
2018-02-02T07:43:15.920Z,989.56
2018-02-02T07:44:15.950Z,989.6
2018-02-02T07:45:15.861Z,989.61
2018-02-02T07:46:15.831Z,989.64
2018-02-02T07:47:15.802Z,989.63
2018-02-02T07:48:15.773Z,989.58
2018-02-02T07:49:15.745Z,989.62
2018-02-02T07:50:15.715Z,989.63
2018-02-02T07:51:15.686Z,989.56
2018-02-02T07:52:15.657Z,989.66
2018-02-02T07:53:15.632Z,989.6
2018-02-02T07:54:15.597Z,989.59
2018-02-02T07:55:15.570Z,989.64
2018-02-02T07:56:15.541Z,989.65
2018-02-02T07:57:15.511Z,989.59
2018-02-02T07:58:15.481Z,989.71
2018-02-02T07:59:15.452Z,989.66
2018-02-02T08:00:15.526Z,989.61
2018-02-02T08:01:15.395Z,989.61
2018-02-02T08:02:15.365Z,989.67
2018-02-02T08:03:15.338Z,989.61
2018-02-02T08:04:15.307Z,989.67
2018-02-02T08:05:15.279Z,989.5
2018-02-02T08:06:15.250Z,989.69
2018-02-02T08:07:15.222Z,989.61
2018-02-02T08:08:15.191Z,989.62
2018-02-02T08:09:15.163Z,989.57
2018-02-02T08:10:15.133Z,989.62
2018-02-02T08:11:15.104Z,989.7
2018-02-02T08:12:15.118Z,989.65
2018-02-02T08:13:15.145Z,989.61
2018-02-02T08:14:15.017Z,989.66
2018-02-02T08:15:14.989Z,989.82
2018-02-02T08:16:14.958Z,989.74
2018-02-02T08:17:14.932Z,989.61
2018-02-02T08:18:14.905Z,989.61
2018-02-02T08:19:14.873Z,989.69
2018-02-02T08:20:14.844Z,989.71
2018-02-02T08:21:14.816Z,989.76
2018-02-02T08:22:14.786Z,989.79
2018-02-02T08:23:14.756Z,989.83
2018-02-02T08:24:14.729Z,989.81
2018-02-02T08:25:14.700Z,989.84
2018-02-02T08:26:14.672Z,989.82
2018-02-02T08:27:14.641Z,989.86
2018-02-02T08:28:14.756Z,989.9
2018-02-02T08:29:14.688Z,989.89
2018-02-02T08:30:14.558Z,989.84
2018-02-02T08:31:14.527Z,989.94
2018-02-02T08:32:14.498Z,989.93
2018-02-02T08:33:14.468Z,989.86
2018-02-02T08:34:14.490Z,989.84
2018-02-02T08:35:14.411Z,989.98
2018-02-02T08:36:14.385Z,989.95
2018-02-02T08:37:14.353Z,989.96
2018-02-02T08:38:14.325Z,989.94
2018-02-02T08:39:14.296Z,989.92
2018-02-02T08:40:14.268Z,989.94
2018-02-02T08:41:14.244Z,989.87
2018-02-02T08:42:14.210Z,989.89
2018-02-02T08:43:14.180Z,989.95
2018-02-02T08:44:14.152Z,989.94
2018-02-02T08:45:14.123Z,989.92
2018-02-02T08:46:14.095Z,989.99
2018-02-02T08:47:14.068Z,989.96
2018-02-02T08:48:14.043Z,989.97
2018-02-02T08:49:14.011Z,989.96
2018-02-02T08:50:14.128Z,989.99
2018-02-02T08:51:14.204Z,989.94
2018-02-02T08:52:14.038Z,990.03
2018-02-02T08:53:13.945Z,990.02
2018-02-02T08:54:13.868Z,990.02
2018-02-02T08:55:13.840Z,990.02
2018-02-02T08:56:13.853Z,990.03
2018-02-02T08:57:13.784Z,990.03
2018-02-02T08:58:13.759Z,990.05
2018-02-02T08:59:13.725Z,990.06
2018-02-02T09:00:13.696Z,990.04
2018-02-02T09:01:13.668Z,990.04
2018-02-02T09:02:13.640Z,990.08
2018-02-02T09:03:13.610Z,990.09
2018-02-02T09:04:13.582Z,990.14
2018-02-02T09:05:13.555Z,990.1
2018-02-02T09:06:13.532Z,990.12
2018-02-02T09:07:13.497Z,990.14
2018-02-02T09:08:13.470Z,990.18
2018-02-02T09:09:13.442Z,990.05
2018-02-02T09:10:13.413Z,990.07
2018-02-02T09:11:13.385Z,990.15
2018-02-02T09:12:13.359Z,990.07
2018-02-02T09:13:13.331Z,990.15
2018-02-02T09:14:13.301Z,990.06
2018-02-02T09:15:13.273Z,990.16
2018-02-02T09:16:13.245Z,990.21
2018-02-02T09:17:13.218Z,990.16
2018-02-02T09:18:13.189Z,990.15
2018-02-02T09:19:13.160Z,990.18
2018-02-02T09:20:13.177Z,990.23
2018-02-02T09:21:13.105Z,990.18
2018-02-02T09:22:13.077Z,990.21
2018-02-02T09:23:13.084Z,990.23
2018-02-02T09:24:13.020Z,990.25
2018-02-02T09:25:12.991Z,990.27
2018-02-02T09:26:12.963Z,990.3
2018-02-02T09:27:12.936Z,990.24
2018-02-02T09:28:12.998Z,990.27
2018-02-02T09:29:12.885Z,990.35
2018-02-02T09:30:12.913Z,990.3
2018-02-02T09:31:13.009Z,990.28
2018-02-02T09:32:12.990Z,990.33
2018-02-02T09:33:12.783Z,990.26
2018-02-02T09:34:12.739Z,990.31
2018-02-02T09:35:12.710Z,990.36
2018-02-02T09:36:12.683Z,990.32
2018-02-02T09:37:12.654Z,990.34
2018-02-02T09:38:12.627Z,990.39
2018-02-02T09:39:12.600Z,990.32
2018-02-02T09:40:12.678Z,990.37
2018-02-02T09:41:12.543Z,990.41
2018-02-02T09:42:12.513Z,990.34
2018-02-02T09:43:12.484Z,990.33
2018-02-02T09:44:12.456Z,990.22
2018-02-02T09:45:12.430Z,990.34
2018-02-02T09:46:12.401Z,990.37
2018-02-02T09:47:12.373Z,990.35
2018-02-02T09:48:12.351Z,990.32
2018-02-02T09:49:12.317Z,990.35
2018-02-02T09:50:12.309Z,990.34
2018-02-02T09:51:12.259Z,990.37
2018-02-02T09:52:12.232Z,990.41
2018-02-02T09:53:12.204Z,990.4
2018-02-02T09:54:12.174Z,990.42
2018-02-02T09:55:12.146Z,990.42
2018-02-02T09:56:12.118Z,990.42
2018-02-02T09:57:12.090Z,990.37
2018-02-02T09:58:12.060Z,990.45
2018-02-02T09:59:12.032Z,990.42
2018-02-02T10:00:12.005Z,990.45
2018-02-02T10:01:11.977Z,990.41
2018-02-02T10:02:11.947Z,990.47
2018-02-02T10:03:11.919Z,990.39
2018-02-02T10:04:11.890Z,990.46
2018-02-02T10:05:11.862Z,990.47
2018-02-02T10:06:11.834Z,990.4
2018-02-02T10:07:11.806Z,990.42
2018-02-02T10:08:11.776Z,990.46
2018-02-02T10:09:11.748Z,990.5
2018-02-02T10:10:11.720Z,990.44
2018-02-02T10:11:11.692Z,990.49
2018-02-02T10:12:11.662Z,990.49
2018-02-02T10:13:11.633Z,990.46
2018-02-02T10:14:11.605Z,990.53
2018-02-02T10:15:11.577Z,990.52
2018-02-02T10:16:11.549Z,990.56
2018-02-02T10:17:11.520Z,990.53
2018-02-02T10:18:11.493Z,990.58
2018-02-02T10:19:11.465Z,990.58
2018-02-02T10:20:11.436Z,990.6
2018-02-02T10:21:11.408Z,990.61
2018-02-02T10:22:11.380Z,990.64
2018-02-02T10:23:11.358Z,990.67
2018-02-02T10:24:11.322Z,990.66
2018-02-02T10:25:11.295Z,990.63
2018-02-02T10:26:11.266Z,990.67
2018-02-02T10:27:11.238Z,990.71
2018-02-02T10:28:11.210Z,990.67
2018-02-02T10:29:11.181Z,990.67
2018-02-02T10:30:11.154Z,990.66
2018-02-02T10:31:11.128Z,990.66
2018-02-02T10:32:11.097Z,990.66
2018-02-02T10:33:11.070Z,990.68
2018-02-02T10:34:11.038Z,990.72
2018-02-02T10:35:11.012Z,990.76
2018-02-02T10:36:10.983Z,990.73
2018-02-02T10:37:10.967Z,990.77
2018-02-02T10:38:10.928Z,990.74
2018-02-02T10:39:10.899Z,990.74
2018-02-02T10:40:10.872Z,990.74
2018-02-02T10:41:10.844Z,990.72
2018-02-02T10:42:10.814Z,990.76
2018-02-02T10:43:10.786Z,990.73
2018-02-02T10:44:10.760Z,990.73
2018-02-02T10:45:10.730Z,990.78
2018-02-02T10:46:10.804Z,990.75
2018-02-02T10:47:10.675Z,990.79
2018-02-02T10:48:10.648Z,990.77
2018-02-02T10:49:10.620Z,990.79
2018-02-02T10:50:10.593Z,990.83
2018-02-02T10:51:10.565Z,990.77
2018-02-02T10:52:10.537Z,990.79
2018-02-02T10:53:10.523Z,990.75
2018-02-02T10:54:10.482Z,990.86
2018-02-02T10:55:10.454Z,990.82
2018-02-02T10:56:10.427Z,990.87
2018-02-02T10:57:10.400Z,990.84
2018-02-02T10:58:10.371Z,990.85
2018-02-02T10:59:10.342Z,990.82
2018-02-02T11:00:10.314Z,990.86
2018-02-02T11:01:10.287Z,990.83
2018-02-02T11:02:10.259Z,990.8
2018-02-02T11:03:10.234Z,990.81
2018-02-02T11:04:10.203Z,990.83
2018-02-02T11:05:10.175Z,990.83
2018-02-02T11:06:10.148Z,990.84
2018-02-02T11:07:10.121Z,990.85
2018-02-02T11:08:10.092Z,990.88
2018-02-02T11:09:10.064Z,990.84
2018-02-02T11:10:10.037Z,990.87
2018-02-02T11:11:10.011Z,990.9
2018-02-02T11:12:09.981Z,990.88
2018-02-02T11:13:09.954Z,990.91
2018-02-02T11:14:09.924Z,990.94
2018-02-02T11:15:09.897Z,990.87
2018-02-02T11:16:09.871Z,990.92
2018-02-02T11:17:09.842Z,990.88
2018-02-02T11:18:09.812Z,990.95
2018-02-02T11:19:09.785Z,990.9
2018-02-02T11:20:09.756Z,990.92
2018-02-02T11:21:09.729Z,990.92
2018-02-02T11:22:09.700Z,990.92
2018-02-02T11:23:09.673Z,990.93
2018-02-02T11:24:09.646Z,990.94
2018-02-02T11:25:09.619Z,990.94
2018-02-02T11:26:09.590Z,990.89
2018-02-02T11:27:09.562Z,990.9
2018-02-02T11:28:09.551Z,990.95
2018-02-02T11:29:09.506Z,990.93
2018-02-02T11:30:09.477Z,990.95
2018-02-02T11:31:09.450Z,990.97
2018-02-02T11:32:09.421Z,990.97
2018-02-02T11:33:09.396Z,990.98
2018-02-02T11:34:09.366Z,990.89
2018-02-02T11:35:09.338Z,990.93
2018-02-02T11:36:09.309Z,990.95
2018-02-02T11:37:09.280Z,990.92
2018-02-02T11:38:09.254Z,990.99
2018-02-02T11:39:09.226Z,990.97
2018-02-02T11:40:09.196Z,990.91
2018-02-02T11:41:09.169Z,990.91
2018-02-02T11:42:09.142Z,991
2018-02-02T11:43:09.114Z,990.98
2018-02-02T11:44:09.084Z,991.01
2018-02-02T11:45:09.057Z,991.01
2018-02-02T11:46:09.030Z,991.02
2018-02-02T11:47:09.005Z,991.01
2018-02-02T11:48:08.973Z,991.02
2018-02-02T11:49:08.946Z,991.03
2018-02-02T11:50:08.918Z,991.02
2018-02-02T11:51:08.889Z,990.99
2018-02-02T11:52:08.862Z,991.05
2018-02-02T11:53:08.835Z,991.05
2018-02-02T11:54:08.807Z,991.07
2018-02-02T11:55:08.778Z,991.05
2018-02-02T11:56:08.751Z,991.04
2018-02-02T11:57:08.723Z,991.07
2018-02-02T11:58:08.694Z,991.07
2018-02-02T11:59:08.667Z,991.07
2018-02-02T12:00:08.640Z,991.07
2018-02-02T12:01:08.614Z,991.07
2018-02-02T12:02:08.798Z,991.1
2018-02-02T12:03:08.557Z,991.15
2018-02-02T12:04:08.529Z,991.12
2018-02-02T12:05:08.503Z,991.1
2018-02-02T12:06:08.474Z,991.08
2018-02-02T12:07:08.448Z,991.12
2018-02-02T12:08:08.420Z,991.14
2018-02-02T12:09:08.391Z,991.16
2018-02-02T12:10:08.364Z,991.13
2018-02-02T12:11:08.337Z,991.22
2018-02-02T12:12:08.309Z,991.2
2018-02-02T12:13:08.282Z,991.17
2018-02-02T12:14:08.254Z,991.16
2018-02-02T12:15:08.233Z,991.2
2018-02-02T12:16:08.199Z,991.12
2018-02-02T12:17:08.172Z,991.21
2018-02-02T12:18:08.144Z,991.18
2018-02-02T12:19:08.116Z,991.15
2018-02-02T12:20:08.090Z,991.15
2018-02-02T12:21:08.061Z,991.21
2018-02-02T12:22:08.036Z,991.14
2018-02-02T12:23:08.006Z,991.14
2018-02-02T12:24:07.977Z,991.17
2018-02-02T12:25:07.949Z,991.15
2018-02-02T12:26:07.921Z,991.12
2018-02-02T12:27:07.895Z,991.11
2018-02-02T12:28:07.868Z,991.15
2018-02-02T12:29:07.841Z,991.15
2018-02-02T12:30:07.811Z,991.09